Date,TemperatureHighF,TemperatureAvgF,TemperatureLowF,DewpointHighF,DewpointAvgF,DewpointLowF,HumidityHigh,HumidityAvg,HumidityLow,PressureMaxIn,PressureMinIn,WindSpeedMaxMPH,WindSpeedAvgMPH,GustSpeedMaxMPH,PrecipitationSumIn
2013-1-1,38,34,26,29,23,14,71,61,51,29.92,29.76,27,8,27,0.04
2013-1-2,25,23,20,16,13,8,63,61,57,30.09,30.04,21,6,21,0.00
2013-1-3,26,18,9,16,6,0,67,54,40,30.16,30.03,21,5,21,0.00
2013-1-4,37,32,24,28,23,16,76,67,55,30.03,29.87,27,7,27,0.00
2013-1-5,42,34,25,24,23,21,86,63,41,30.28,29.91,24,5,24,0.02
2013-1-6,40,34,26,36,31,21,96,87,77,30.25,29.98,15,3,22,0.02
2013-1-7,40,33,25,32,29,24,99,84,66,30.44,29.99,24,4,24,0.02
2013-1-8,45,40,32,38,35,31,97,81,63,30.44,30.34,23,5,24,0.00
2013-1-9,46,39,27,44,37,28,100,92,72,30.43,30.08,28,3,28,0.00
2013-1-10,46,41,30,37,26,23,73,54,39,30.54,30.11,26,7,30,0.00
2013-1-11,42,36,29,38,30,23,97,79,66,30.53,30.24,12,2,12,0.12
2013-1-12,44,41,39,44,41,38,100,98,95,30.27,30.16,11,2,12,0.03
2013-1-13,50,46,42,50,46,42,100,100,100,30.22,30.08,11,2,14,0.02
2013-1-14,53,50,43,53,49,33,100,95,59,30.28,30.00,21,4,21,0.02
2013-1-15,43,39,37,38,37,33,99,90,76,30.32,30.22,13,3,13,0.15
2013-1-16,41,38,36,41,38,35,100,99,88,30.26,29.76,16,3,16,0.66
2013-1-17,42,38,33,37,33,26,100,82,62,30.11,29.89,22,5,22,0.00
2013-1-18,34,24,16,28,12,0,97,59,33,30.51,30.02,30,7,30,0.00
2013-1-19,48,40,17,45,33,14,87,75,68,30.45,29.99,31,6,31,0.04
2013-1-20,51,45,31,46,36,14,89,69,41,30.00,29.64,26,8,26,0.00
2013-1-21,31,28,24,29,16,8,99,61,40,30.14,29.79,24,4,26,0.00
2013-1-22,29,22,15,29,13,0,99,66,37,30.09,29.74,30,8,30,0.02
2013-1-23,16,13,9,4,-2,-6,62,47,39,30.18,30.08,32,9,32,0.00
2013-1-24,19,13,6,0,-4,-6,53,43,32,30.22,30.04,28,10,29,0.00
2013-1-25,23,17,10,16,1,-6,83,46,33,30.32,30.06,25,6,25,0.00
2013-1-26,26,20,15,18,10,0,90,65,36,30.24,29.99,30,8,30,0.00
2013-1-27,30,21,14,8,5,0,62,47,30,30.48,30.22,28,7,28,0.00
2013-1-28,32,25,12,32,17,4,99,73,31,30.47,30.02,10,2,11,0.00
2013-1-29,38,35,32,38,35,32,100,99,94,30.24,30.01,9,1,9,0.14
2013-1-30,57,47,35,56,47,35,100,99,95,30.20,29.63,26,4,26,0.07
2013-1-31,56,47,34,56,40,16,100,78,45,29.66,29.14,37,10,37,0.57
2013-2-1,34,30,24,18,12,8,58,45,35,30.12,29.64,29,10,29,0.00
2013-2-2,33,26,20,28,14,4,93,57,41,30.29,30.08,24,7,25,0.00
2013-2-3,34,27,22,26,24,18,95,85,67,30.08,29.69,24,6,24,0.00
2013-2-4,27,25,23,24,19,16,90,78,58,29.83,29.72,26,8,26,0.00
2013-2-6,39,34,29,32,23,11,100,67,42,30.31,30.01,22,6,22,0.03
2013-2-7,30,26,22,24,12,4,80,52,34,30.55,30.30,18,4,18,0.00
2013-2-8,33,32,29,33,30,24,100,91,78,30.50,29.39,38,11,41,0.10
2013-2-9,19,17,15,21,17,14,97,95,93,30.16,30.04,27,10,27,0.00
2013-2-10,32,22,13,26,18,11,97,84,66,30.42,30.15,20,5,20,0.09
2013-2-11,46,36,18,46,36,18,100,98,92,30.40,29.65,19,4,21,0.71
2013-2-12,45,40,33,44,32,26,100,75,51,29.93,29.64,27,6,28,0.01
2013-2-13,41,34,28,31,26,23,93,73,53,29.92,29.69,13,3,13,0.00
2013-2-14,41,34,29,36,29,24,100,84,52,30.06,29.71,20,3,21,0.16
2013-2-15,48,38,28,40,35,28,100,89,61,30.10,29.98,14,2,14,0.00
2013-2-16,38,33,27,35,32,28,100,96,84,29.98,29.64,23,5,23,0.11
2013-2-17,35,25,19,33,19,8,97,78,42,29.68,29.29,43,12,43,0.20
2013-2-18,32,24,17,11,8,4,56,44,32,30.20,29.67,34,10,34,0.01
2013-2-19,46,37,27,46,30,11,100,75,44,30.21,29.64,21,4,21,0.86
2013-2-20,42,34,27,42,24,11,100,67,42,29.82,29.60,30,8,30,0.03
2013-2-21,34,29,26,21,16,14,66,56,44,30.15,29.80,28,9,28,0.01
2013-2-22,37,33,29,29,25,18,79,72,63,30.40,30.14,25,5,25,0.00
2013-2-23,38,35,32,37,32,26,100,89,79,30.37,29.87,18,4,18,0.36
2013-2-24,44,39,33,44,39,33,100,100,98,29.88,29.60,30,8,30,1.01
2013-2-25,40,34,27,35,30,26,100,88,61,30.28,29.87,19,4,19,0.04
2013-2-26,41,34,25,40,31,26,100,86,61,30.38,30.16,16,3,16,0.00
2013-2-27,44,41,38,44,41,36,100,99,91,30.17,29.60,31,8,31,0.97
2013-2-28,48,40,37,42,39,37,100,96,77,29.69,29.54,16,2,16,0.00
2013-3-1,41,38,36,38,35,33,100,89,73,29.70,29.53,22,5,23,0.01
2013-3-2,42,37,35,33,30,29,89,76,61,29.71,29.67,17,5,17,0.00
2013-3-3,41,36,34,32,31,29,91,79,65,29.64,29.60,14,4,14,0.00
2013-3-4,40,35,30,32,26,24,95,70,53,29.73,29.59,28,9,28,0.00
2013-3-5,41,36,30,36,31,24,99,80,69,30.08,29.73,28,7,28,0.00
2013-3-6,41,38,31,38,36,31,100,90,79,30.08,29.92,31,9,31,0.02
2013-3-7,37,35,34,36,35,33,99,98,92,29.94,29.84,36,10,40,2.85
2013-3-8,42,36,33,37,35,32,100,95,71,30.08,29.84,34,9,36,1.49
2013-3-9,40,37,34,33,32,31,94,83,72,30.35,30.06,31,7,32,0.01
2013-3-10,43,38,33,36,33,32,96,84,71,30.43,30.34,14,4,14,0.00
2013-3-11,46,40,36,41,38,32,98,90,81,30.38,30.22,16,3,16,0.00
2013-3-12,51,46,42,50,46,41,100,99,94,30.24,29.81,20,5,20,0.90
2013-3-13,54,45,34,54,39,26,100,80,51,29.83,29.74,18,6,18,0.50
2013-3-14,36,32,26,31,21,8,90,63,43,29.85,29.73,32,8,32,0.00
2013-3-15,38,31,23,31,18,8,75,57,37,29.90,29.70,27,8,30,0.00
2013-3-16,39,35,29,31,21,11,83,57,32,29.90,29.71,24,4,24,0.00
2013-3-17,39,33,27,31,20,11,90,61,38,30.32,29.90,22,5,24,0.00
2013-3-18,34,30,21,26,17,8,71,56,46,30.48,30.26,18,5,18,0.00
2013-3-19,45,37,32,45,37,26,100,96,71,30.27,29.51,29,10,29,0.87
2013-3-20,40,35,30,33,26,21,96,69,45,29.87,29.67,31,8,31,0.00
2013-3-21,41,34,27,32,29,24,100,83,56,29.87,29.61,21,4,21,0.00
2013-3-22,39,33,28,31,26,21,100,76,47,29.78,29.61,24,7,24,0.07
2013-3-23,43,37,31,26,22,18,74,55,37,29.81,29.66,35,10,35,0.00
2013-3-24,44,37,29,31,26,21,93,64,45,29.87,29.78,21,5,21,0.00
2013-3-25,44,37,29,37,32,28,97,81,63,29.80,29.47,26,6,28,0.00
2013-3-26,48,39,34,35,30,24,93,71,42,29.81,29.47,26,6,26,0.02
2013-3-27,49,41,30,36,29,23,85,61,38,29.89,29.79,25,5,25,0.00
2013-3-28,46,41,37,39,35,29,97,80,53,30.06,29.86,26,6,26,0.04
2013-3-29,54,44,36,41,36,32,88,73,49,30.08,30.03,18,4,18,0.01
2013-3-30,52,44,32,37,34,29,94,68,46,30.14,30.06,18,4,19,0.00
2013-3-31,54,43,30,44,36,31,98,78,48,30.18,29.79,23,3,23,0.09
2013-4-1,53,46,37,48,42,21,100,86,46,29.83,29.60,32,8,32,0.30
2013-4-2,42,36,30,23,17,11,57,45,31,30.01,29.83,30,8,30,0.00
2013-4-3,45,38,32,18,16,14,52,40,29,30.19,29.98,32,10,34,0.00
2013-4-4,43,37,30,35,23,16,82,56,39,30.35,30.15,23,7,23,0.00
2013-4-5,49,42,39,45,39,32,97,86,70,30.15,29.70,20,3,20,0.09
2013-4-6,44,38,33,35,22,8,82,53,25,30.39,29.88,30,6,32,0.00
2013-4-7,48,41,29,44,34,26,97,77,52,30.39,30.12,19,4,20,0.00
2013-4-8,60,50,44,47,44,40,93,79,56,30.17,30.03,17,4,17,0.00
2013-4-9,68,51,44,52,46,41,100,85,53,30.16,29.90,20,4,24,0.00
2013-4-10,59,48,45,48,45,43,99,89,65,30.08,29.90,22,4,22,0.32
2013-4-11,51,46,44,46,42,36,100,87,61,30.17,29.84,20,4,20,0.06
2013-4-12,44,42,38,43,37,31,100,83,61,30.19,29.71,28,9,29,1.11
2013-4-13,48,42,39,42,40,38,100,91,73,29.99,29.70,33,7,34,0.09
2013-4-14,52,47,40,44,38,28,97,72,42,30.24,29.98,22,5,22,0.00
2013-4-15,51,44,37,42,36,29,93,74,56,30.47,30.24,15,4,15,0.00
2013-4-16,56,48,37,49,44,36,99,85,69,30.48,30.19,20,4,20,0.00
2013-4-17,62,52,39,53,44,37,100,79,40,30.38,30.15,21,4,22,0.05
2013-4-18,54,47,36,48,41,36,100,81,62,30.47,30.23,17,4,17,0.00
2013-4-19,68,59,50,62,57,48,100,94,80,30.23,29.82,28,5,29,0.00
2013-4-20,61,53,45,60,50,39,100,89,72,30.24,29.74,29,6,29,0.39
2013-4-21,48,42,34,40,27,24,81,56,42,30.70,30.24,23,5,24,0.01
2013-4-22,48,41,31,38,34,29,95,74,51,30.76,30.58,23,6,23,0.00
2013-4-23,45,43,40,45,42,36,100,96,79,30.58,30.02,26,6,26,1.09
2013-4-24,54,48,43,50,46,43,100,92,76,30.03,29.83,37,10,38,0.64
2013-4-25,60,51,40,54,46,38,98,84,46,30.29,29.95,24,4,26,0.02
2013-4-26,53,47,36,45,41,36,100,83,63,30.47,30.29,14,4,14,0.00
2013-4-27,56,48,36,47,39,32,100,74,43,30.48,30.38,11,2,13,0.00
2013-4-28,61,50,37,48,43,37,99,79,48,30.41,30.32,14,2,14,0.00
2013-4-29,61,50,42,50,41,31,100,75,32,30.35,30.29,12,2,12,0.00
2013-4-30,58,49,37,48,37,28,100,67,34,30.42,30.30,12,3,12,0.00
2013-5-1,58,49,39,49,45,38,98,86,70,30.52,30.41,16,3,17,0.00
2013-5-2,69,53,40,50,44,39,100,76,35,30.51,30.41,12,2,12,0.00
2013-5-3,51,47,41,45,43,40,98,86,74,30.52,30.38,20,4,20,0.00
2013-5-4,53,47,39,45,41,37,100,80,58,30.40,30.34,20,4,20,0.00
2013-5-5,55,48,41,46,43,40,99,85,60,30.35,30.30,20,5,20,0.00
2013-5-6,55,47,44,50,46,43,100,96,82,30.35,30.23,12,3,12,0.00
2013-5-7,65,55,47,59,53,47,100,96,81,30.26,30.19,11,2,13,0.00
2013-5-8,63,57,54,60,57,54,100,98,87,30.26,30.10,16,4,17,0.03
2013-5-9,66,58,54,64,57,54,100,97,87,30.10,29.94,14,3,14,0.02
2013-5-10,73,62,53,60,56,53,100,84,50,30.03,29.94,18,4,18,0.00
2013-5-11,67,60,54,61,58,54,100,96,77,30.02,29.78,19,3,20,0.60
2013-5-12,61,58,52,60,55,37,100,91,55,29.87,29.67,22,4,22,0.19
2013-5-13,55,50,40,42,37,31,93,62,46,30.05,29.87,25,5,25,0.00
2013-5-14,55,50,43,43,36,31,74,59,41,30.10,30.02,23,5,25,0.00
2013-5-15,61,53,42,56,46,36,97,78,44,30.12,29.75,22,4,22,0.02
2013-5-16,70,60,52,56,52,49,100,78,48,29.84,29.72,25,5,27,0.00
2013-5-17,65,57,49,50,46,41,93,68,42,30.27,29.83,23,4,23,0.00
2013-5-18,66,56,44,54,49,43,99,79,54,30.37,30.27,16,3,17,0.00
2013-5-19,67,59,50,55,50,47,98,76,49,30.41,30.30,17,3,18,0.10
2013-5-20,66,60,56,62,59,55,100,96,85,30.31,30.00,17,4,17,0.15
2013-5-21,73,62,54,67,60,54,100,95,80,30.03,29.92,21,4,21,0.01
2013-5-22,70,60,52,65,58,52,100,95,83,30.02,29.96,21,3,23,0.01
2013-5-23,72,65,61,68,64,61,100,96,84,30.02,29.93,21,5,23,0.14
2013-5-24,64,62,55,64,62,54,100,100,100,29.94,29.74,25,4,25,1.99
2013-5-25,55,51,44,54,51,43,100,98,91,29.79,29.72,26,7,26,0.57
2013-5-26,60,50,43,44,42,39,99,73,47,30.15,29.77,26,8,28,0.00
2013-5-27,65,57,49,50,46,41,85,68,49,30.22,30.14,22,6,22,0.00
2013-5-28,71,58,46,58,52,44,100,81,52,30.30,30.22,11,2,11,0.00
2013-5-29,64,59,56,62,59,56,100,98,89,30.28,30.09,19,4,19,0.66
2013-5-30,77,66,59,69,63,60,100,90,71,30.15,30.08,20,4,20,0.17
2013-5-31,85,70,60,70,64,60,99,81,53,30.15,30.03,19,4,19,0.00
2013-6-1,76,66,60,67,62,60,98,89,72,30.07,29.99,24,6,24,0.00
2013-6-2,75,67,62,67,64,61,99,90,75,30.02,29.90,29,4,29,0.00
2013-6-3,66,64,62,66,64,62,100,100,96,29.93,29.85,26,4,26,2.63
2013-6-4,71,62,53,63,51,45,100,70,42,30.13,29.85,22,4,22,0.00
2013-6-5,69,60,48,54,49,45,99,71,43,30.24,30.12,12,2,12,0.00
2013-6-6,69,61,52,59,54,50,98,79,61,30.26,30.14,14,2,14,0.00
2013-6-7,66,59,56,66,58,53,100,97,81,30.16,29.81,23,6,24,1.80
2013-6-8,68,64,60,67,63,60,100,95,83,30.06,29.60,26,6,26,0.20
2013-6-9,74,66,59,63,60,58,100,83,61,30.22,30.06,15,4,16,0.00
2013-6-10,71,62,58,62,60,57,100,91,70,30.25,30.04,21,4,21,0.72
2013-6-11,72,65,57,68,64,57,100,98,86,30.04,29.60,22,5,22,1.30
2013-6-12,71,63,56,60,57,54,100,82,59,29.85,29.61,27,8,27,0.00
2013-6-13,70,59,54,60,55,54,98,87,63,29.88,29.65,18,4,20,0.27
2013-6-14,67,57,53,56,54,51,100,90,66,29.80,29.58,26,5,26,1.25
2013-6-15,77,66,57,59,54,45,98,68,36,30.01,29.79,15,5,16,0.00
2013-6-16,76,66,60,63,60,51,100,80,47,30.01,29.82,16,4,16,0.00
2013-6-17,78,69,62,66,64,61,99,84,66,29.98,29.84,20,4,22,0.01
2013-6-18,76,66,60,70,63,60,100,90,69,29.98,29.91,15,2,17,0.01
2013-6-19,71,64,57,61,55,48,99,75,47,30.21,29.89,20,4,21,0.02
2013-6-20,73,64,53,61,56,52,100,76,50,30.35,30.21,14,2,14,0.00
2013-6-21,73,66,61,58,54,49,85,65,49,30.34,30.28,20,5,23,0.00
2013-6-22,77,67,63,64,61,56,97,81,53,30.31,30.22,16,4,17,0.00
2013-6-23,76,70,64,69,66,64,100,89,71,30.25,30.12,21,5,22,0.00
2013-6-24,78,71,67,72,69,66,100,92,78,30.13,29.94,22,5,22,0.00
2013-6-25,80,73,68,70,68,66,96,84,70,29.97,29.83,16,4,17,0.00
2013-6-26,81,74,68,72,70,67,99,87,72,29.90,29.78,17,3,18,0.00
2013-6-27,74,69,66,71,68,66,100,98,88,29.90,29.81,15,2,15,0.00
2013-6-28,72,70,68,72,70,68,100,100,100,29.82,29.63,19,3,22,0.49
2013-6-29,74,71,69,74,71,68,100,99,94,29.83,29.59,16,2,17,0.72
2013-6-30,76,72,69,74,71,69,100,97,86,30.03,29.82,17,2,17,0.06
2013-7-1,80,74,70,77,73,70,100,98,88,30.18,30.03,15,3,15,0.07
2013-7-2,81,76,72,78,74,72,100,97,90,30.28,30.17,19,3,19,0.06
2013-7-3,77,74,72,74,73,72,100,98,93,30.30,30.24,20,5,20,0.00
2013-7-4,80,75,72,77,74,72,100,97,89,30.28,30.19,19,5,19,0.00
2013-7-5,81,76,72,76,74,72,100,93,84,30.23,30.13,19,6,19,0.00
2013-7-6,82,77,72,76,74,71,100,90,80,30.15,30.03,15,3,15,0.00
2013-7-7,86,78,72,77,74,72,100,89,68,30.08,29.98,15,3,15,0.00
2013-7-8,79,75,72,74,72,71,100,91,81,30.10,29.98,20,4,20,0.00
2013-7-9,78,73,69,73,71,68,100,95,83,30.14,30.07,10,2,10,0.00
2013-7-10,82,76,72,78,74,72,100,95,79,30.12,29.89,14,3,14,0.00
2013-7-11,77,74,72,76,74,72,100,99,95,29.96,29.87,16,3,16,0.05
2013-7-12,74,71,68,73,70,66,100,96,85,30.22,29.95,17,3,17,0.00
2013-7-13,77,72,69,74,72,69,100,98,91,30.36,30.22,12,3,12,0.10
2013-7-14,86,78,73,78,75,73,100,93,78,30.35,30.24,14,3,14,0.01
2013-7-15,92,81,74,79,75,73,100,83,63,30.26,30.15,8,2,8,0.00
2013-7-16,90,80,72,74,72,67,100,77,53,30.21,30.13,15,3,15,0.00
2013-7-17,83,77,69,76,71,68,100,84,62,30.24,30.10,9,2,9,0.00
2013-7-18,89,79,74,77,73,71,99,85,59,30.11,30.02,9,3,9,0.00
2013-7-19,85,79,75,78,76,74,100,93,80,30.03,29.83,9,4,9,0.00
2013-7-20,81,78,75,76,75,74,99,93,84,29.86,29.74,9,5,9,0.00
2013-7-21,84,75,68,75,71,67,100,90,63,30.05,29.85,9,2,9,0.50
2013-7-22,77,73,71,72,70,69,100,93,82,30.06,29.93,9,3,9,0.00
2013-7-23,84,77,72,79,76,72,100,96,82,29.94,29.62,9,3,9,0.05
2013-7-24,84,78,73,76,73,65,100,86,67,29.95,29.63,9,3,9,0.00
2013-7-25,73,66,63,66,62,59,99,88,77,30.10,29.94,9,4,9,0.08
2013-7-26,69,67,64,69,66,63,100,100,99,30.08,29.90,9,3,9,0.70
2013-7-27,80,73,67,72,70,67,100,90,69,30.13,30.06,9,3,9,0.00
2013-7-28,80,74,69,76,72,68,100,95,85,30.09,29.99,9,2,9,0.15
2013-7-29,83,75,69,76,72,68,100,92,78,30.10,30.04,9,2,9,0.00
2013-7-30,80,73,67,72,66,58,100,81,51,30.15,30.07,9,4,9,0.00
2013-7-31,80,72,63,66,63,57,97,77,48,30.18,30.11,9,2,9,0.00
2013-8-1,78,71,64,70,66,63,100,86,66,30.13,29.96,14,2,14,0.03
2013-8-2,79,72,65,72,68,64,100,91,73,29.96,29.86,17,3,17,0.11
2013-8-3,74,71,69,71,68,66,97,90,80,29.96,29.86,20,4,20,0.02
2013-8-4,79,69,61,67,62,57,97,79,53,29.93,29.82,22,4,24,0.00
2013-8-5,75,66,57,60,54,47,96,69,39,30.10,29.92,20,5,20,0.00
2013-8-6,75,65,53,60,55,51,98,73,48,30.23,30.09,11,1,11,0.00
2013-8-7,76,66,54,68,57,50,100,75,42,30.25,30.19,11,2,13,0.00
2013-8-8,78,72,66,72,67,59,97,84,72,30.20,30.11,18,3,19,0.01
2013-8-9,76,73,70,74,72,69,100,98,95,30.14,29.85,20,4,20,0.08
2013-8-10,81,74,67,72,67,59,100,81,49,30.07,29.85,20,5,20,0.00
2013-8-11,77,69,58,62,57,52,95,68,45,30.13,30.05,18,3,18,0.00
2013-8-12,76,70,64,70,66,62,99,88,75,30.11,29.98,11,2,12,0.00
2013-8-13,72,69,66,70,68,65,100,98,94,30.00,29.74,11,2,11,0.15
2013-8-14,73,68,64,67,59,53,100,75,50,30.01,29.72,23,5,23,0.00
2013-8-15,73,66,55,60,54,44,94,68,39,30.19,30.01,14,4,16,0.00
2013-8-16,78,69,60,64,59,48,98,72,38,30.27,30.17,15,2,15,0.00
2013-8-17,81,70,60,64,61,58,100,78,47,30.34,30.25,9,2,9,0.00
2013-8-18,75,66,59,68,62,59,100,89,66,30.34,30.14,9,1,9,0.11
2013-8-19,78,68,59,68,64,59,100,88,68,30.15,30.01,13,3,13,0.01
2013-8-20,83,74,66,70,66,63,97,79,54,30.16,30.02,13,3,13,0.00
2013-8-21,83,74,65,70,67,64,100,82,57,30.20,30.11,16,3,16,0.00
2013-8-22,76,72,70,72,71,68,100,95,85,30.12,29.91,23,4,23,0.00
2013-8-23,74,70,61,71,63,56,100,80,55,30.15,29.88,27,4,27,0.00
2013-8-24,71,65,52,61,54,49,96,71,47,30.39,30.15,21,2,21,0.00
2013-8-25,80,66,51,63,57,48,99,74,43,30.42,30.28,14,2,14,0.00
2013-8-26,72,70,68,68,66,62,95,88,80,30.28,29.96,22,5,22,0.00
2013-8-27,72,70,67,72,69,67,100,99,95,29.96,29.89,15,2,15,0.62
2013-8-28,82,71,66,73,68,65,100,93,70,30.01,29.90,13,2,13,0.00
2013-8-29,70,66,61,67,64,59,100,96,89,30.10,29.98,17,2,17,0.00
2013-8-30,72,66,57,69,64,57,100,94,84,30.07,29.92,17,4,19,0.00
2013-8-31,75,72,70,73,71,69,100,97,91,29.94,29.90,20,4,21,0.00
2013-9-1,73,72,72,72,71,71,99,98,97,29.93,29.90,12,3,12,0.14
2013-9-13,176,0,176,100,100,100,99,99,99,29.68,29.67,6,2,6,0.60
2013-9-16,176,0,176,100,100,100,99,98,98,30.11,30.11,13,5,13,0.00
2013-9-17,176,0,176,100,100,100,96,96,96,30.19,30.19,25,16,25,0.00
2013-9-18,67,64,60,53,49,46,78,60,49,30.25,30.23,12,4,12,0.00
2013-10-15,62,58,51,54,52,50,99,83,69,30.32,30.22,13,3,14,0.00
2013-10-16,60,56,51,60,56,51,100,99,97,30.22,29.96,14,2,14,0.00
2013-10-17,66,61,56,62,60,56,100,97,90,29.98,29.81,16,3,16,0.00
2013-10-18,67,62,49,64,56,47,100,85,55,29.99,29.71,23,4,23,0.03
2013-10-19,64,55,45,56,47,43,96,77,48,30.07,29.83,11,2,12,0.00
2013-10-20,61,56,41,59,46,37,97,74,42,30.08,29.77,25,4,25,0.02
2013-10-21,62,52,39,50,44,38,99,77,48,30.19,30.08,11,2,16,0.00
2013-10-22,66,58,46,57,52,45,99,84,65,30.09,29.78,13,2,13,0.01
2013-10-23,53,47,40,47,41,37,98,81,64,29.85,29.64,14,3,14,0.21
2013-10-24,52,46,41,42,35,28,98,68,42,29.96,29.68,23,6,23,0.00
2013-10-25,50,43,35,37,33,31,89,68,50,30.23,29.95,22,5,22,0.00
2013-10-26,57,46,31,45,38,29,100,75,54,30.24,29.94,25,4,26,0.00
2013-10-27,56,51,40,45,37,32,87,60,47,30.13,29.88,21,5,22,0.00
2013-10-28,57,46,32,43,37,31,97,72,50,30.37,30.13,24,4,24,0.00
2013-10-29,52,44,36,40,36,31,91,73,55,30.47,30.38,9,2,9,0.00
2013-10-30,56,45,33,49,42,32,99,91,74,30.42,30.26,12,1,12,0.01
2013-10-31,64,55,40,62,53,40,100,94,85,30.30,29.95,20,2,20,0.00
2013-11-1,70,64,61,66,62,58,99,93,84,29.95,29.63,40,6,40,0.05
2013-11-2,62,57,54,59,55,52,99,93,77,29.78,29.66,10,2,12,0.05
2013-11-3,55,46,37,53,41,26,99,85,61,30.40,29.76,24,6,24,0.01
2013-11-4,43,39,32,33,30,28,87,66,55,30.74,30.40,24,4,24,0.00
2013-11-5,48,39,32,37,33,29,97,80,60,30.76,30.58,9,2,9,0.00
2013-11-6,58,49,36,56,46,36,100,91,73,30.59,30.16,15,2,15,0.00
2013-11-7,62,56,44,62,55,40,100,97,84,30.16,29.74,26,5,28,1.01
2013-11-8,49,43,36,40,31,24,86,64,49,30.16,29.86,27,8,27,0.01
2013-11-9,44,39,34,37,29,24,89,66,46,30.27,30.13,22,5,22,0.00
2013-11-10,55,49,39,48,42,36,93,76,64,30.13,29.79,23,5,23,0.02
2013-11-11,54,47,41,47,35,29,77,64,45,30.16,29.93,30,8,31,0.02
2013-11-12,54,38,28,47,34,23,100,86,59,30.22,29.94,26,6,26,0.11
2013-11-13,36,30,25,23,20,16,83,65,46,30.32,30.20,22,6,22,0.00
2013-11-14,50,44,31,38,32,21,81,63,44,30.26,30.12,24,7,24,0.01
2013-11-15,56,51,46,49,43,33,94,75,60,30.29,30.20,20,5,20,0.00
2013-11-16,57,48,37,47,42,35,100,80,48,30.39,30.27,13,3,13,0.00
2013-11-17,56,48,36,56,48,36,100,98,86,30.38,29.95,11,2,11,0.25
2013-11-18,62,57,50,62,54,40,100,90,70,29.95,29.65,24,6,24,0.44
2013-11-19,50,42,32,40,28,23,71,57,43,30.32,29.72,29,8,29,0.02
2013-11-20,39,33,28,26,22,18,68,61,51,30.64,30.31,23,6,23,0.00
2013-11-21,47,37,28,37,29,21,93,74,55,30.68,30.46,13,1,13,0.00
2013-11-22,53,48,38,53,47,36,100,97,88,30.46,29.89,11,2,20,0.20
2013-11-23,51,44,33,50,32,18,100,64,37,29.93,29.83,27,8,27,0.01
2013-11-24,33,26,23,21,10,0,62,47,30,30.21,29.82,33,14,38,0.09
2013-11-25,39,26,19,32,9,4,78,48,28,30.43,30.21,31,6,31,0.00
2013-11-26,47,42,39,47,36,31,100,78,62,30.40,30.10,19,4,19,0.10
2013-11-27,60,53,41,60,53,40,100,100,96,30.10,29.21,32,8,32,2.10
2013-11-28,40,33,26,40,22,14,96,64,47,30.49,29.53,29,8,29,0.02
2013-11-29,34,29,24,21,16,14,71,58,46,30.76,30.48,17,4,17,0.00
2013-11-30,38,30,20,32,21,11,86,69,53,30.81,30.51,14,3,14,0.00
2013-12-1,49,44,38,49,41,31,100,89,73,30.52,30.02,18,3,18,0.02
2013-12-2,47,42,40,47,41,39,100,99,96,30.04,29.94,13,2,13,0.00
2013-12-3,44,40,35,41,39,35,99,96,85,29.99,29.87,22,5,22,0.01
2013-12-4,44,36,29,36,33,29,99,87,61,30.26,29.98,18,3,18,0.00
2013-12-5,55,45,29,54,45,29,100,99,95,30.27,30.02,10,2,10,0.00
2013-12-6,58,51,39,58,51,39,100,99,92,30.17,29.96,18,4,18,0.25
2013-12-7,41,36,29,39,33,23,100,89,68,30.50,30.09,20,6,20,0.30
2013-12-8,33,30,26,26,23,18,84,72,65,30.64,30.49,12,4,12,0.00
2013-12-9,46,40,32,46,39,26,100,97,73,30.53,29.92,25,6,25,0.42
2013-12-10,39,34,27,39,34,26,100,100,94,30.07,29.83,20,5,20,0.04
2013-12-11,33,29,25,26,24,21,96,78,63,30.31,30.06,22,7,22,0.03
2013-12-12,31,23,15,21,13,4,80,63,39,30.32,30.15,25,5,25,0.00
2013-12-13,32,26,19,21,15,11,80,61,49,30.39,30.06,25,6,25,0.00
2013-12-14,33,24,17,33,20,11,100,83,68,30.61,30.15,27,7,27,0.00
2013-12-15,51,37,29,51,36,24,100,96,76,30.16,29.38,34,8,34,1.03
2013-12-16,32,28,20,28,17,11,92,63,42,30.27,29.82,29,6,29,0.00
2013-12-17,42,26,13,42,23,8,100,83,57,30.31,29.90,19,5,19,0.10
2013-12-18,35,31,23,35,26,21,100,84,61,30.16,29.80,26,8,26,0.01
2013-12-19,46,38,30,38,32,24,83,76,66,30.19,30.04,22,5,22,0.00
2013-12-20,54,44,32,48,40,29,98,89,72,30.20,30.04,20,4,20,0.00
2013-12-21,56,52,48,55,50,47,100,94,84,30.10,29.99,22,6,22,0.00
2013-12-22,58,55,46,59,54,45,100,99,96,30.08,29.92,28,6,28,0.00
2013-12-23,57,46,38,56,45,38,100,99,96,30.12,30.00,18,3,18,0.49
2013-12-24,42,35,29,42,31,21,100,85,67,30.24,30.04,22,7,22,0.19
2013-12-25,29,22,18,24,15,8,82,70,57,30.60,30.23,24,6,24,0.00
2013-12-26,40,33,19,38,31,16,100,90,81,30.55,30.11,17,4,17,0.11
2013-12-27,36,31,25,28,25,23,91,77,58,30.34,30.25,15,4,15,0.01
2013-12-28,48,39,26,39,34,23,96,81,68,30.31,30.09,22,4,22,0.00
2013-12-29,57,44,37,56,43,36,100,97,84,30.12,29.36,31,4,31,1.07
2013-12-30,43,37,26,42,32,18,100,81,57,30.18,29.50,24,7,24,0.00
2013-12-31,27,24,19,23,15,11,82,67,53,30.23,30.08,22,6,22,0.00
2014-1-1,29,25,21,18,14,8,82,61,48,30.44,30.22,23,5,23,0.00
2014-1-2,32,28,25,32,27,16,99,93,63,30.40,29.71,22,6,22,0.00